Time;durP1;ratioP1;P1;durP2;ratioP2;P2;SDS_P1;SDS_P2;PMS_P1;PMS_P2;Temp;Humidity;BMP_temperature;BMP_pressure;BME280_temperature;BME280_humidity;BME280_pressure;Samples;Min_cycle;Max_cycle;Signal;HPM_P1;HPM_P2
2022/01/08 00:01:11;;;;;;;21.87;15.20;;;13.50;75.70;;;;;;5167198;28;20062;-30
2022/01/08 00:03:42;;;;;;;22.47;14.60;;;13.50;75.90;;;;;;5167122;28;20497;-29
2022/01/08 00:06:13;;;;;;;24.43;16.40;;;13.60;75.90;;;;;;5167902;28;20050;-31
2022/01/08 00:08:44;;;;;;;21.73;15.13;;;13.50;76.10;;;;;;5166824;28;20562;-29
2022/01/08 00:11:19;;;;;;;25.70;16.73;;;13.50;76.10;;;;;;5167845;28;20053;-31
2022/01/08 00:13:50;;;;;;;24.63;16.00;;;13.50;76.20;;;;;;5168221;28;20105;-30
2022/01/08 00:16:21;;;;;;;25.90;17.03;;;13.50;76.00;;;;;;5168001;28;20050;-30
2022/01/08 00:18:52;;;;;;;28.07;18.27;;;13.50;76.00;;;;;;5167771;28;20129;-31
2022/01/08 00:21:23;;;;;;;28.93;18.23;;;13.50;75.90;;;;;;5168205;28;20477;-30
2022/01/08 00:23:54;;;;;;;30.50;20.17;;;13.50;75.90;;;;;;5167942;28;20056;-29
2022/01/08 00:26:25;;;;;;;34.07;20.80;;;13.50;75.90;;;;;;5168162;28;20445;-30
2022/01/08 00:28:56;;;;;;;33.23;20.77;;;13.50;75.80;;;;;;5167618;28;20121;-29
2022/01/08 00:31:27;;;;;;;40.60;23.00;;;13.50;75.80;;;;;;5167489;28;20062;-30
2022/01/08 00:33:58;;;;;;;26.00;17.50;;;13.50;75.60;;;;;;5166687;28;20077;-29
2022/01/08 00:36:29;;;;;;;28.70;18.27;;;13.50;75.30;;;;;;5166127;28;20062;-31
2022/01/08 00:39:00;;;;;;;28.70;17.93;;;13.50;75.00;;;;;;5167436;28;20046;-31
2022/01/08 00:41:31;;;;;;;25.07;17.17;;;13.50;74.90;;;;;;5167631;28;20092;-30
2022/01/08 00:44:02;;;;;;;26.67;17.13;;;13.50;74.80;;;;;;5167083;28;20058;-29
2022/01/08 00:46:35;;;;;;;26.10;16.77;;;13.50;74.40;;;;;;5166115;28;20050;-29
2022/01/08 00:49:06;;;;;;;26.05;16.20;;;13.40;74.30;;;;;;5167356;28;20046;-31
2022/01/08 00:51:37;;;;;;;23.70;15.17;;;13.40;74.10;;;;;;5167087;28;20105;-28
2022/01/08 00:54:08;;;;;;;31.37;16.20;;;13.40;74.00;;;;;;5165888;28;20477;-28
2022/01/08 00:56:39;;;;;;;26.53;15.43;;;13.40;73.90;;;;;;5166952;28;20046;-29
2022/01/08 00:59:10;;;;;;;26.20;15.73;;;13.40;73.70;;;;;;5167107;28;20056;-30
2022/01/08 01:01:41;;;;;;;24.37;14.00;;;13.40;74.40;;;;;;5167227;28;20108;-30
2022/01/08 01:04:13;;;;;;;21.93;13.80;;;13.30;74.30;;;;;;5166864;28;20042;-29
2022/01/08 01:06:44;;;;;;;23.07;15.97;;;13.30;73.90;;;;;;5166870;28;20074;-29
2022/01/08 01:09:15;;;;;;;24.20;14.43;;;13.30;74.10;;;;;;5165823;28;20992;-30
2022/01/08 01:11:46;;;;;;;24.53;14.97;;;13.30;74.20;;;;;;5166747;28;20050;-31
2022/01/08 01:14:17;;;;;;;21.10;13.60;;;13.30;74.50;;;;;;5146692;28;20054;-31
2022/01/08 01:16:48;;;;;;;21.03;14.23;;;13.30;74.30;;;;;;5145470;28;20081;-31
2022/01/08 01:19:20;;;;;;;22.23;14.10;;;13.40;74.40;;;;;;5146826;28;20054;-31
2022/01/08 01:21:54;;;;;;;22.23;14.17;;;13.40;74.50;;;;;;5146659;28;20051;-31
2022/01/08 01:24:26;;;;;;;22.83;13.43;;;13.50;74.60;;;;;;5146658;28;20039;-29
2022/01/08 01:49:15;;;;;;;20.30;13.73;;;13.60;76.50;;;;;;5143229;28;20074;-30
2022/01/08 01:51:46;;;;;;;19.87;13.90;;;13.50;76.70;;;;;;5144373;28;20129;-31
2022/01/08 01:54:17;;;;;;;20.87;13.03;;;13.50;76.70;;;;;;5142871;28;20068;-31
2022/01/08 01:56:48;;;;;;;20.23;14.60;;;13.40;76.80;;;;;;5144015;28;20040;-31
2022/01/08 01:59:19;;;;;;;24.93;15.97;;;13.40;76.90;;;;;;5144090;28;20090;-31
2022/01/08 02:01:49;;;;;;;22.43;14.63;;;13.40;77.10;;;;;;5142650;28;20113;-29
2022/01/08 02:04:21;;;;;;;21.17;14.57;;;13.30;77.10;;;;;;5142863;28;20101;-31
2022/01/08 02:06:51;;;;;;;24.83;16.03;;;13.30;77.30;;;;;;5143877;28;20038;-30
2022/01/08 02:09:22;;;;;;;21.57;13.80;;;13.30;77.50;;;;;;5142619;28;20046;-29
2022/01/08 02:12:01;;;;;;;17.17;12.00;;;13.30;78.10;;;;;;5142735;28;20094;-29
2022/01/08 02:14:34;;;;;;;22.40;14.13;;;13.30;77.50;;;;;;5158637;28;20137;-29
2022/01/08 02:17:06;;;;;;;19.92;13.52;;;13.20;77.70;;;;;;5163960;28;20050;-30
2022/01/08 02:19:38;;;;;;;18.27;13.97;;;13.20;77.80;;;;;;5164046;28;20395;-31
2022/01/08 02:22:10;;;;;;;18.73;12.70;;;13.20;77.70;;;;;;5164080;28;20443;-31
2022/01/08 02:24:44;;;;;;;18.63;12.90;;;13.20;77.90;;;;;;5146606;28;20066;-31
2022/01/08 02:27:16;;;;;;;20.53;13.30;;;13.20;77.80;;;;;;5146624;28;20073;-29
2022/01/08 02:29:48;;;;;;;17.07;13.60;;;13.20;78.00;;;;;;5146328;28;20046;-32
2022/01/08 02:32:24;;;;;;;18.70;12.55;;;13.20;78.20;;;;;;5162630;28;20047;-31
2022/01/08 02:34:55;;;;;;;19.57;12.50;;;13.10;78.10;;;;;;5162592;28;20460;-31
2022/01/08 02:37:30;;;;;;;17.47;12.60;;;13.10;78.00;;;;;;5163891;28;20058;-30
2022/01/08 02:40:04;;;;;;;20.90;13.07;;;13.10;78.00;;;;;;5160249;28;20552;-29
2022/01/08 02:42:49;;;;;;;21.27;12.93;;;13.10;78.10;;;;;;5146593;28;20050;-30
2022/01/08 02:45:21;;;;;;;19.80;12.67;;;13.10;78.30;;;;;;5163694;28;20053;-30
2022/01/08 02:47:55;;;;;;;21.27;13.87;;;13.10;78.20;;;;;;5163632;28;20062;-31
2022/01/08 02:50:26;;;;;;;22.50;13.27;;;13.10;78.20;;;;;;5165034;28;20044;-30
2022/01/08 02:52:58;;;;;;;20.97;12.67;;;13.10;78.20;;;;;;5179374;28;20061;-31
2022/01/08 02:55:29;;;;;;;19.43;12.47;;;13.10;78.20;;;;;;5151155;28;20108;-30
2022/01/08 02:58:00;;;;;;;17.67;12.73;;;13.10;78.10;;;;;;5167328;28;20046;-29
2022/01/08 03:00:31;;;;;;;18.20;12.10;;;13.10;78.10;;;;;;5167004;28;20050;-30
2022/01/08 03:03:02;;;;;;;20.90;13.60;;;13.10;78.50;;;;;;5167068;28;20404;-31
2022/01/08 03:05:33;;;;;;;18.40;12.83;;;13.00;78.10;;;;;;5149540;28;20105;-30
2022/01/08 03:08:04;;;;;;;18.87;11.97;;;12.90;78.30;;;;;;5167090;28;20084;-30
2022/01/08 03:10:35;;;;;;;18.50;12.80;;;12.90;78.30;;;;;;5166913;28;20074;-30
2022/01/08 03:13:07;;;;;;;17.77;11.87;;;12.90;78.20;;;;;;5166868;28;20499;-29
2022/01/08 03:15:41;;;;;;;17.57;12.00;;;12.90;78.10;;;;;;5166758;28;20872;-30
2022/01/08 03:18:12;;;;;;;17.87;12.30;;;12.90;77.80;;;;;;5166930;28;20046;-30
2022/01/08 03:20:49;;;;;;;20.33;13.00;;;12.90;78.00;;;;;;5166901;28;20399;-30
2022/01/08 03:23:20;;;;;;;18.13;11.57;;;12.90;78.10;;;;;;5130210;28;20496;-30
2022/01/08 03:25:51;;;;;;;16.73;11.77;;;12.90;78.00;;;;;;5149296;28;20121;-30
2022/01/08 03:28:22;;;;;;;16.87;10.93;;;12.90;77.80;;;;;;5166457;28;20463;-30
2022/01/08 03:30:53;;;;;;;19.20;12.33;;;13.00;77.50;;;;;;5166743;28;20121;-29
2022/01/08 03:33:25;;;;;;;17.13;12.30;;;13.00;77.00;;;;;;5166349;28;20133;-29
2022/01/08 03:35:56;;;;;;;20.50;13.07;;;13.00;76.90;;;;;;5165523;28;20477;-29
2022/01/08 03:38:27;;;;;;;15.77;11.33;;;13.00;76.70;;;;;;5166254;28;20044;-29
2022/01/08 03:40:58;;;;;;;18.60;11.60;;;13.10;76.60;;;;;;5166263;28;20073;-29
2022/01/08 03:43:29;;;;;;;15.63;11.30;;;13.10;76.50;;;;;;5148778;28;20092;-31
2022/01/08 03:46:03;;;;;;;16.90;12.07;;;13.10;76.40;;;;;;5166303;28;20060;-29
2022/01/08 03:51:14;;;;;;;17.17;11.93;;;13.10;76.40;;;;;;5166157;28;20745;-29
2022/01/08 03:53:45;;;;;;;15.93;11.10;;;13.10;76.40;;;;;;5166190;28;20550;-31
2022/01/08 03:56:16;;;;;;;15.50;10.63;;;13.10;76.50;;;;;;5166292;28;20088;-31
2022/01/08 03:58:47;;;;;;;16.30;11.00;;;13.10;76.40;;;;;;5164855;28;20077;-31
2022/01/08 04:01:18;;;;;;;17.07;10.53;;;13.10;76.60;;;;;;5165722;28;20070;-31
2022/01/08 04:03:49;;;;;;;15.70;11.03;;;13.10;76.80;;;;;;5148302;28;20069;-31
2022/01/08 04:06:20;;;;;;;16.77;11.20;;;13.10;77.20;;;;;;5164809;28;20129;-29
2022/01/08 04:08:56;;;;;;;16.40;12.47;;;13.10;77.80;;;;;;5165621;28;20142;-30
2022/01/08 04:11:27;;;;;;;18.67;12.50;;;13.10;77.60;;;;;;5165773;28;20460;-30
2022/01/08 04:13:58;;;;;;;19.13;11.93;;;13.10;77.50;;;;;;5165719;28;20064;-28
2022/01/08 04:16:33;;;;;;;19.20;13.53;;;13.20;77.30;;;;;;5165658;28;20154;-30
2022/01/08 04:19:04;;;;;;;17.77;12.07;;;13.20;77.20;;;;;;5165463;28;20092;-30
2022/01/08 04:24:07;;;;;;;19.07;12.23;;;13.20;77.00;;;;;;5165420;28;20141;-30
2022/01/08 04:26:38;;;;;;;17.25;11.45;;;13.20;77.00;;;;;;5165293;28;20057;-31
2022/01/08 04:29:10;;;;;;;16.80;11.10;;;13.20;77.00;;;;;;5165645;28;20053;-31
2022/01/08 04:31:41;;;;;;;15.73;11.20;;;13.20;77.10;;;;;;5165392;28;20046;-30
2022/01/08 04:34:12;;;;;;;15.00;10.73;;;13.20;77.10;;;;;;5165335;28;20060;-31
2022/01/08 04:36:43;;;;;;;16.93;11.57;;;13.20;77.10;;;;;;5165049;28;20093;-29
2022/01/08 04:39:14;;;;;;;17.03;10.77;;;13.20;77.20;;;;;;5165044;28;20074;-29
2022/01/08 04:41:45;;;;;;;16.80;11.87;;;13.20;77.20;;;;;;5165115;28;20373;-29
2022/01/08 04:44:16;;;;;;;21.87;16.80;;;13.20;77.10;;;;;;5163900;28;20125;-29
2022/01/08 04:46:47;;;;;;;47.70;42.50;;;13.20;77.10;;;;;;5164820;28;20074;-30
2022/01/08 04:49:18;;;;;;;77.47;69.67;;;13.20;77.40;;;;;;5165103;28;20073;-29
2022/01/08 04:51:49;;;;;;;37.83;34.10;;;13.20;77.40;;;;;;5164803;28;20133;-32
2022/01/08 04:54:21;;;;;;;22.03;19.63;;;13.20;77.40;;;;;;5165258;28;20147;-31
2022/01/08 04:56:52;;;;;;;21.17;15.97;;;13.20;77.50;;;;;;5163634;28;20539;-31
2022/01/08 04:59:23;;;;;;;17.87;14.00;;;13.20;77.30;;;;;;5165081;28;20117;-30
2022/01/08 05:01:54;;;;;;;17.90;13.90;;;13.20;77.40;;;;;;5177345;28;20050;-31
2022/01/08 05:04:26;;;;;;;18.23;12.33;;;13.20;77.30;;;;;;5164818;28;20057;-29
2022/01/08 05:06:58;;;;;;;16.60;11.50;;;13.20;77.40;;;;;;5164811;28;20385;-31
2022/01/08 05:09:28;;;;;;;16.27;11.20;;;13.10;77.20;;;;;;5163663;28;20053;-28
2022/01/08 05:11:59;;;;;;;18.70;12.10;;;13.20;77.40;;;;;;5164418;28;20046;-32
2022/01/08 05:14:30;;;;;;;17.03;10.73;;;13.10;77.80;;;;;;5164346;28;20655;-29
2022/01/08 05:17:02;;;;;;;16.30;11.07;;;13.10;78.20;;;;;;5164440;28;20042;-29
2022/01/08 05:19:44;;;;;;;16.50;11.63;;;13.10;78.20;;;;;;5163627;28;20042;-31
2022/01/08 05:22:24;;;;;;;16.50;10.90;;;13.10;78.20;;;;;;5164458;28;20050;-30
2022/01/08 05:24:55;;;;;;;15.37;10.60;;;13.10;78.00;;;;;;5158020;28;20046;-29
2022/01/08 05:27:26;;;;;;;16.07;10.13;;;13.10;78.40;;;;;;5164581;28;20058;-31
2022/01/08 05:29:57;;;;;;;14.43;12.40;;;13.10;78.30;;;;;;5164518;28;20121;-29
2022/01/08 05:32:28;;;;;;;13.60;11.00;;;13.10;78.30;;;;;;5164856;28;20361;-30
2022/01/08 05:34:59;;;;;;;15.27;12.47;;;13.00;78.40;;;;;;5163159;28;20049;-31
2022/01/08 05:37:30;;;;;;;20.00;12.67;;;13.00;78.50;;;;;;5163088;28;20057;-29
2022/01/08 05:40:01;;;;;;;15.13;11.73;;;13.00;78.50;;;;;;5146816;28;20046;-30
2022/01/08 05:42:32;;;;;;;19.67;12.60;;;13.00;78.40;;;;;;5164537;28;20043;-31
2022/01/08 05:45:03;;;;;;;17.10;11.03;;;13.00;78.40;;;;;;5163150;28;20085;-31
2022/01/08 05:47:35;;;;;;;14.70;9.87;;;13.00;78.50;;;;;;5174113;28;20052;-29
2022/01/08 05:50:06;;;;;;;14.87;10.80;;;13.00;78.30;;;;;;5167751;28;20072;-29
2022/01/08 05:52:37;;;;;;;18.30;11.87;;;13.00;78.50;;;;;;5164208;28;20499;-29
2022/01/08 05:55:09;;;;;;;17.37;12.00;;;13.00;78.50;;;;;;5164276;28;20047;-31
2022/01/08 05:57:40;;;;;;;15.43;10.60;;;13.00;78.60;;;;;;5164703;28;20097;-31
2022/01/08 06:00:11;;;;;;;14.93;11.43;;;13.00;78.40;;;;;;5162983;28;20046;-31
2022/01/08 06:02:42;;;;;;;16.27;11.93;;;12.90;78.60;;;;;;5163998;28;20070;-29
2022/01/08 06:05:13;;;;;;;15.63;10.53;;;12.90;78.50;;;;;;5164177;28;20561;-31
2022/01/08 06:07:44;;;;;;;16.47;11.67;;;12.90;78.40;;;;;;5164218;28;20128;-29
2022/01/08 06:10:15;;;;;;;17.87;11.73;;;12.90;78.40;;;;;;5161909;28;20583;-31
2022/01/08 06:12:46;;;;;;;14.47;11.13;;;12.90;78.50;;;;;;5163652;28;20051;-31
2022/01/08 06:15:17;;;;;;;16.63;10.37;;;12.90;79.00;;;;;;5146787;28;20046;-29
2022/01/08 06:17:48;;;;;;;18.03;12.37;;;12.90;78.40;;;;;;5164208;28;20042;-31
2022/01/08 06:20:19;;;;;;;19.73;12.40;;;12.90;78.50;;;;;;5164120;28;20690;-29
2022/01/08 06:22:50;;;;;;;19.03;12.10;;;12.90;78.50;;;;;;5163840;28;20159;-29
2022/01/08 06:25:21;;;;;;;16.40;12.17;;;12.90;78.60;;;;;;5166496;28;20181;-30
2022/01/08 06:27:54;;;;;;;17.80;12.03;;;12.90;78.50;;;;;;5167670;28;20050;-32
2022/01/08 06:30:25;;;;;;;18.67;14.32;;;12.90;78.50;;;;;;5167995;28;20521;-30
2022/01/08 06:32:56;;;;;;;17.67;12.27;;;12.90;78.80;;;;;;5166611;28;20145;-30
2022/01/08 06:35:27;;;;;;;16.80;12.07;;;12.90;78.70;;;;;;5166523;28;20568;-30
2022/01/08 06:37:58;;;;;;;19.33;13.43;;;12.90;78.80;;;;;;5166130;28;20093;-31
2022/01/08 06:40:28;;;;;;;13.77;10.73;;;12.90;78.80;;;;;;5167833;28;20472;-30
2022/01/08 06:42:59;;;;;;;14.90;10.33;;;12.80;78.70;;;;;;5167491;28;20064;-30
2022/01/08 06:45:30;;;;;;;14.63;10.70;;;12.90;78.70;;;;;;5167612;28;20042;-31
2022/01/08 06:48:02;;;;;;;15.57;11.27;;;12.90;78.70;;;;;;5167386;28;20046;-31
2022/01/08 06:50:32;;;;;;;14.10;10.07;;;12.80;78.70;;;;;;5149889;28;20084;-31
2022/01/08 06:53:04;;;;;;;18.73;13.00;;;12.80;78.60;;;;;;5167239;28;20050;-30
2022/01/08 06:55:35;;;;;;;17.37;12.57;;;12.80;78.70;;;;;;5149879;28;20042;-31
2022/01/08 06:58:06;;;;;;;15.90;12.20;;;12.80;78.70;;;;;;5167342;28;20118;-31
2022/01/08 07:00:37;;;;;;;15.87;10.97;;;12.80;78.70;;;;;;5150891;28;20114;-35
2022/01/08 07:03:10;;;;;;;14.53;10.53;;;12.80;78.70;;;;;;5167063;28;20046;-30
2022/01/08 07:05:42;;;;;;;15.80;11.38;;;12.80;78.80;;;;;;5165971;28;20113;-29
2022/01/08 07:08:14;;;;;;;13.17;10.70;;;12.80;78.60;;;;;;5149583;28;20056;-31
2022/01/08 07:10:45;;;;;;;15.43;11.70;;;12.80;78.70;;;;;;5166726;28;20046;-31
2022/01/08 07:13:16;;;;;;;15.03;11.10;;;12.80;78.70;;;;;;5165392;28;20054;-31
2022/01/08 07:15:46;;;;;;;15.27;11.20;;;12.80;78.70;;;;;;5166711;28;20050;-31
2022/01/08 07:18:17;;;;;;;13.93;10.27;;;12.80;78.70;;;;;;5166938;28;20043;-31
2022/01/08 07:20:48;;;;;;;14.93;11.20;;;12.80;78.80;;;;;;5168299;28;20047;-29
2022/01/08 07:23:19;;;;;;;15.87;12.27;;;12.80;78.70;;;;;;5167771;28;20133;-29
2022/01/08 07:25:50;;;;;;;20.43;13.83;;;12.80;78.60;;;;;;5167595;28;20491;-31
2022/01/08 07:28:21;;;;;;;20.50;14.63;;;12.80;78.50;;;;;;5168848;28;20046;-29
2022/01/08 07:30:52;;;;;;;15.27;11.60;;;12.80;78.40;;;;;;5169069;28;20399;-28
2022/01/08 07:33:23;;;;;;;18.37;11.30;;;12.80;78.30;;;;;;5168867;28;20042;-31
2022/01/08 07:35:54;;;;;;;16.20;11.40;;;12.80;78.50;;;;;;5168124;28;20119;-29
2022/01/08 07:38:25;;;;;;;16.03;12.13;;;12.80;78.40;;;;;;5168669;28;20469;-31
2022/01/08 07:40:56;;;;;;;16.57;12.47;;;12.80;78.40;;;;;;5168781;28;20049;-32
2022/01/08 07:43:27;;;;;;;16.27;11.87;;;12.80;78.50;;;;;;5168210;28;20455;-28
2022/01/08 07:45:58;;;;;;;19.40;14.60;;;12.80;78.60;;;;;;5147290;28;20074;-30
2022/01/08 07:48:29;;;;;;;18.77;13.80;;;12.80;78.70;;;;;;5158628;28;20503;-30
2022/01/08 07:51:00;;;;;;;17.10;12.40;;;12.70;78.60;;;;;;5167517;28;20122;-30
2022/01/08 07:53:31;;;;;;;15.43;11.40;;;12.80;78.40;;;;;;5166267;28;20108;-31
2022/01/08 07:56:02;;;;;;;18.90;12.87;;;12.80;78.30;;;;;;5148794;28;20050;-30
2022/01/08 07:58:33;;;;;;;16.70;12.90;;;12.80;78.20;;;;;;5164946;28;20476;-31
2022/01/08 08:01:04;;;;;;;17.27;12.00;;;12.90;78.80;;;;;;5165843;28;20053;-31
2022/01/08 08:03:35;;;;;;;18.13;12.27;;;12.90;78.20;;;;;;5165948;28;20133;-30
2022/01/08 08:06:10;;;;;;;19.13;12.17;;;12.90;78.00;;;;;;5165954;28;20568;-29
2022/01/08 08:08:41;;;;;;;19.57;12.47;;;12.90;78.10;;;;;;5165919;28;20527;-30
2022/01/08 08:11:12;;;;;;;20.07;13.67;;;12.90;77.80;;;;;;5165443;28;20078;-29
2022/01/08 08:13:43;;;;;;;18.00;12.60;;;12.90;77.70;;;;;;5164238;28;20137;-29
2022/01/08 08:16:14;;;;;;;18.10;12.57;;;12.90;77.80;;;;;;5165812;28;20081;-30
2022/01/08 08:18:46;;;;;;;19.27;12.63;;;12.90;77.30;;;;;;5164458;28;20440;-30
2022/01/08 08:21:17;;;;;;;16.47;12.23;;;12.90;77.80;;;;;;5165564;28;20408;-30
2022/01/08 08:23:48;;;;;;;19.57;13.47;;;12.90;77.80;;;;;;5164869;28;20129;-30
2022/01/08 08:26:19;;;;;;;22.07;12.63;;;12.90;77.70;;;;;;5165079;28;20042;-30
2022/01/08 08:28:50;;;;;;;18.50;12.50;;;13.00;77.60;;;;;;5165719;28;20042;-30
2022/01/08 08:31:39;;;;;;;16.60;12.30;;;12.90;77.70;;;;;;5165352;28;20097;-28
2022/01/08 08:34:10;;;;;;;18.03;12.93;;;13.00;77.60;;;;;;5165387;28;20046;-29
2022/01/08 08:36:41;;;;;;;19.03;13.77;;;13.00;78.20;;;;;;5168070;28;20041;-30
2022/01/08 08:39:12;;;;;;;17.50;13.40;;;13.00;77.80;;;;;;5158717;28;20456;-31
2022/01/08 08:41:42;;;;;;;18.73;13.97;;;13.00;77.80;;;;;;5163950;28;20050;-31
2022/01/08 08:44:13;;;;;;;19.33;14.07;;;13.00;78.10;;;;;;5164043;28;20070;-29
2022/01/08 08:46:44;;;;;;;32.07;19.87;;;13.00;78.10;;;;;;5164872;28;20077;-29
2022/01/08 08:49:15;;;;;;;26.97;18.63;;;13.00;78.00;;;;;;5164096;28;20129;-30
2022/01/08 08:51:46;;;;;;;33.27;23.07;;;13.00;78.00;;;;;;5165207;28;20157;-31
2022/01/08 08:54:17;;;;;;;29.07;23.10;;;12.90;78.00;;;;;;5163779;28;20050;-31
2022/01/08 08:56:48;;;;;;;27.30;22.73;;;13.00;78.20;;;;;;5164770;28;20034;-30
2022/01/08 08:59:20;;;;;;;24.07;17.80;;;12.90;78.20;;;;;;5167063;28;20404;-31
2022/01/08 09:01:51;;;;;;;22.70;16.50;;;12.90;78.20;;;;;;5167098;28;20042;-29
2022/01/08 09:04:23;;;;;;;27.57;17.30;;;12.90;78.20;;;;;;5150158;28;20085;-31
2022/01/08 09:06:57;;;;;;;23.67;15.30;;;12.90;78.30;;;;;;5166638;28;20050;-30
2022/01/08 09:09:28;;;;;;;24.17;16.73;;;12.90;78.70;;;;;;5166996;28;20046;-30
2022/01/08 09:11:59;;;;;;;23.03;15.73;;;12.90;78.40;;;;;;5166721;28;20069;-29
2022/01/08 09:14:30;;;;;;;22.87;16.27;;;13.00;78.30;;;;;;5167079;28;20085;-30
2022/01/08 09:17:03;;;;;;;21.70;15.43;;;12.90;78.40;;;;;;5149534;28;20078;-30
2022/01/08 09:19:34;;;;;;;23.53;17.33;;;13.00;78.50;;;;;;5166680;28;20109;-29
2022/01/08 09:22:05;;;;;;;23.63;17.50;;;13.00;78.50;;;;;;5149528;28;20480;-28
2022/01/08 09:24:36;;;;;;;26.97;19.77;;;13.00;78.40;;;;;;5149459;28;20120;-30
2022/01/08 09:27:07;;;;;;;26.20;18.40;;;13.00;78.50;;;;;;5149723;28;20069;-30
2022/01/08 09:29:38;;;;;;;24.13;17.33;;;13.00;78.60;;;;;;5166712;28;20093;-29
2022/01/08 09:32:09;;;;;;;23.27;16.33;;;13.10;78.50;;;;;;5166709;28;20046;-30
2022/01/08 09:34:40;;;;;;;21.87;17.07;;;13.20;78.30;;;;;;5149205;28;20050;-32
2022/01/08 09:37:11;;;;;;;23.77;16.67;;;13.30;78.40;;;;;;5166781;28;20043;-29
2022/01/08 09:39:43;;;;;;;22.60;16.70;;;13.50;78.50;;;;;;5166420;28;20484;-30
2022/01/08 09:42:13;;;;;;;25.63;18.10;;;13.60;78.10;;;;;;5166339;28;20043;-29
2022/01/08 09:44:45;;;;;;;22.60;17.07;;;13.70;77.70;;;;;;5166548;28;20042;-30
2022/01/08 09:47:17;;;;;;;21.23;16.23;;;13.80;77.80;;;;;;5166826;28;20042;-30
2022/01/08 09:49:48;;;;;;;25.63;16.53;;;13.90;77.70;;;;;;5166202;28;20066;-29
2022/01/08 09:52:19;;;;;;;24.23;17.80;;;13.90;77.50;;;;;;5166389;28;20055;-30
2022/01/08 09:54:50;;;;;;;20.70;15.97;;;14.00;77.50;;;;;;5166679;28;20050;-30
2022/01/08 09:57:21;;;;;;;23.17;17.03;;;14.00;77.70;;;;;;5166501;28;20496;-29
2022/01/08 09:59:52;;;;;;;25.63;16.97;;;14.00;77.50;;;;;;5168544;28;20166;-29
2022/01/08 10:02:23;;;;;;;24.13;17.57;;;14.00;77.40;;;;;;5153081;28;20440;-30
2022/01/08 10:04:55;;;;;;;22.80;15.93;;;14.00;77.50;;;;;;5153125;28;20042;-30
2022/01/08 10:07:26;;;;;;;24.93;19.47;;;14.00;77.50;;;;;;5137043;28;20057;-29
2022/01/08 10:09:58;;;;;;;22.23;17.00;;;14.00;77.60;;;;;;5153167;28;20093;-29
2022/01/08 10:12:50;;;;;;;26.40;19.57;;;13.90;77.60;;;;;;5152628;28;20124;-31
2022/01/08 10:18:33;;;;;;;26.83;19.10;;;13.90;77.80;;;;;;5156269;28;20051;-30
2022/01/08 10:21:38;;;;;;;25.70;17.70;;;13.90;77.70;;;;;;5137304;28;20479;-31
2022/01/08 10:24:09;;;;;;;25.03;18.47;;;13.90;77.70;;;;;;5072892;29;20128;-30
2022/01/08 10:26:41;;;;;;;27.57;17.97;;;14.00;77.70;;;;;;5088056;29;20052;-29
2022/01/08 10:29:14;;;;;;;26.30;18.60;;;14.00;77.80;;;;;;5088246;29;20131;-30
2022/01/08 10:31:50;;;;;;;25.75;17.92;;;14.00;77.90;;;;;;5072833;29;20127;-31
2022/01/08 10:34:22;;;;;;;23.97;17.60;;;14.00;78.00;;;;;;5088302;29;20092;-30
2022/01/08 10:36:58;;;;;;;25.33;18.52;;;14.00;77.90;;;;;;5072353;29;20079;-30
2022/01/08 10:39:36;;;;;;;27.57;19.57;;;14.00;78.10;;;;;;5087978;29;20661;-31
2022/01/08 10:42:12;;;;;;;26.87;18.50;;;14.00;78.30;;;;;;5087853;29;20131;-30
2022/01/08 10:44:46;;;;;;;27.53;21.40;;;14.00;78.50;;;;;;5087886;29;20052;-28
2022/01/08 10:47:21;;;;;;;34.23;23.77;;;14.00;78.60;;;;;;5088364;29;20052;-29
2022/01/08 10:50:02;;;;;;;31.57;22.00;;;14.00;78.50;;;;;;5072137;29;20052;-31
2022/01/08 10:52:43;;;;;;;35.53;25.53;;;13.90;78.60;;;;;;5087670;29;20137;-31
2022/01/08 10:55:14;;;;;;;33.23;23.17;;;13.80;78.80;;;;;;5087662;29;20056;-28
2022/01/08 10:57:46;;;;;;;28.27;21.67;;;13.80;78.80;;;;;;5087946;29;20055;-30
2022/01/08 11:00:17;;;;;;;29.77;22.70;;;13.80;78.90;;;;;;5148850;28;20054;-31
2022/01/08 11:02:48;;;;;;;24.83;21.43;;;13.90;79.10;;;;;;5169435;28;20049;-30
2022/01/08 11:05:19;;;;;;;24.40;19.23;;;13.80;79.30;;;;;;5169394;28;20446;-31
2022/01/08 11:07:50;;;;;;;27.40;21.67;;;13.90;79.60;;;;;;5151997;28;20057;-31
2022/01/08 11:10:23;;;;;;;60.53;50.53;;;13.90;79.40;;;;;;5168523;28;20042;-30
2022/01/08 11:12:54;;;;;;;37.43;29.00;;;13.80;79.50;;;;;;5168405;28;20050;-30
2022/01/08 11:15:36;;;;;;;27.77;23.30;;;13.80;80.10;;;;;;5169822;28;20047;-30
2022/01/08 11:18:07;;;;;;;29.93;23.27;;;13.80;79.70;;;;;;5169135;28;20042;-30
2022/01/08 11:20:38;;;;;;;33.03;26.80;;;13.80;79.70;;;;;;5151807;28;20045;-31
2022/01/08 11:23:09;;;;;;;29.03;21.67;;;13.70;79.90;;;;;;5151632;28;20046;-30
2022/01/08 11:25:40;;;;;;;31.93;24.13;;;13.60;80.10;;;;;;5136057;28;20120;-29
2022/01/08 11:28:15;;;;;;;30.87;24.63;;;13.60;80.00;;;;;;5151611;28;20129;-30
2022/01/08 11:30:57;;;;;;;40.40;32.63;;;13.60;80.10;;;;;;5152120;28;20077;-31
2022/01/08 11:33:33;;;;;;;26.47;19.83;;;13.60;80.30;;;;;;5151889;28;20392;-29
2022/01/08 11:36:04;;;;;;;28.57;20.60;;;13.60;80.10;;;;;;5137310;28;20053;-31
2022/01/08 11:38:35;;;;;;;27.30;20.47;;;13.60;79.90;;;;;;5151702;28;20038;-30
2022/01/08 11:41:06;;;;;;;26.70;20.27;;;13.50;79.80;;;;;;5168768;28;20043;-30
2022/01/08 11:43:37;;;;;;;28.07;20.87;;;13.50;79.60;;;;;;5151264;28;20046;-31
2022/01/08 11:46:08;;;;;;;29.67;20.90;;;13.50;79.90;;;;;;5135204;28;20046;-31
2022/01/08 11:48:48;;;;;;;25.37;19.33;;;13.50;80.10;;;;;;5134909;28;20073;-30
2022/01/08 11:51:23;;;;;;;25.97;19.50;;;13.50;80.00;;;;;;5151317;28;20046;-31
2022/01/08 11:53:56;;;;;;;30.47;22.47;;;13.40;80.30;;;;;;5168349;28;20053;-31
2022/01/08 11:56:29;;;;;;;25.47;20.27;;;13.50;80.40;;;;;;5168263;28;20050;-30
2022/01/08 11:59:04;;;;;;;29.52;21.50;;;13.50;80.30;;;;;;5168564;28;20046;-30
2022/01/08 12:01:36;;;;;;;27.53;21.03;;;13.40;80.00;;;;;;5150997;28;20066;-30
2022/01/08 12:04:07;;;;;;;28.77;21.83;;;13.40;80.20;;;;;;5151036;28;20047;-30
2022/01/08 12:06:39;;;;;;;29.80;24.60;;;13.40;80.00;;;;;;5134943;28;20472;-29
2022/01/08 12:11:46;;;;;;;36.50;24.53;;;13.40;80.00;;;;;;5168739;28;20437;-30
2022/01/08 12:14:21;;;;;;;33.70;25.50;;;13.40;80.10;;;;;;5167892;28;20113;-29
2022/01/08 12:16:53;;;;;;;39.07;28.07;;;13.40;80.10;;;;;;5150667;28;20050;-29
2022/01/08 12:19:36;;;;;;;33.03;27.40;;;13.40;80.10;;;;;;5150613;28;20046;-29
2022/01/08 12:22:16;;;;;;;31.07;23.33;;;13.40;80.20;;;;;;5134543;28;20046;-29
2022/01/08 12:24:51;;;;;;;28.30;21.73;;;13.40;80.20;;;;;;5167763;28;20050;-29
2022/01/08 12:27:34;;;;;;;32.97;23.03;;;13.40;80.10;;;;;;5168016;28;20073;-30
2022/01/08 12:30:17;;;;;;;32.92;23.33;;;13.30;80.10;;;;;;5167620;28;20073;-31
2022/01/08 12:32:51;;;;;;;31.52;23.95;;;13.40;80.20;;;;;;5150678;28;20050;-29
2022/01/08 12:35:28;;;;;;;37.63;27.60;;;13.30;80.10;;;;;;5150589;28;20073;-29
2022/01/08 12:38:00;;;;;;;35.57;25.33;;;13.40;80.10;;;;;;5135412;28;20050;-30
2022/01/08 12:40:37;;;;;;;37.30;24.85;;;13.40;80.00;;;;;;5167747;28;20042;-30
2022/01/08 12:43:37;;;;;;;31.93;23.07;;;13.40;80.00;;;;;;5150030;28;20050;-29
2022/01/08 12:46:24;;;;;;;32.30;23.77;;;13.50;80.00;;;;;;5150823;28;20046;-29
2022/01/08 12:49:08;;;;;;;37.27;24.50;;;13.40;80.00;;;;;;5167243;28;20042;-30
2022/01/08 12:51:42;;;;;;;;;;;13.40;80.40;;;;;;5150347;28;20050;-29
2022/01/08 12:54:13;;;;;;;33.60;24.67;;;13.40;80.40;;;;;;5167367;28;19922;-30
2022/01/08 12:56:51;;;;;;;33.63;23.80;;;13.40;80.60;;;;;;5167365;28;20046;-30
2022/01/08 12:59:29;;;;;;;37.97;25.80;;;13.40;80.50;;;;;;5166670;28;20057;-31
2022/01/08 13:02:01;;;;;;;35.33;25.50;;;13.40;80.40;;;;;;5150121;28;20097;-31
2022/01/08 13:04:32;;;;;;;32.50;24.20;;;13.40;80.60;;;;;;5167055;28;20125;-30
2022/01/08 13:07:06;;;;;;;32.73;24.70;;;13.40;80.50;;;;;;5166829;28;20057;-31
2022/01/08 13:09:37;;;;;;;33.13;24.00;;;13.40;80.60;;;;;;5149530;28;20046;-28
2022/01/08 13:12:09;;;;;;;30.70;23.77;;;13.40;80.70;;;;;;5148942;28;20035;-30
2022/01/08 13:14:40;;;;;;;30.93;23.60;;;13.40;80.90;;;;;;5149261;28;20128;-29
2022/01/08 13:17:13;;;;;;;33.47;23.00;;;13.40;80.70;;;;;;5166038;28;20117;-30
2022/01/08 13:19:44;;;;;;;36.00;25.05;;;13.40;80.60;;;;;;5149171;28;20048;-32
2022/01/08 13:22:15;;;;;;;32.30;23.10;;;13.40;80.50;;;;;;5165964;28;20117;-30
2022/01/08 13:24:48;;;;;;;34.10;24.03;;;13.40;80.50;;;;;;5132813;28;20137;-30
2022/01/08 13:27:20;;;;;;;35.17;24.42;;;13.40;80.40;;;;;;5166239;28;20046;-30